メインページ
METAR-TAF:

METAR-TAF

空港 :

チンギスハーン国際空港

ウランバートル, モンゴル国

緯度: 47-55N, 経度: 106-52E, 海抜: 1306m

現時点の気象観測

当レポートは39分前の19:00(UTC)に作成
無風
気温 0°C
湿度 86%
気圧 1012 hPa
視程10km以上
1,500メートル以下は雲なし、積乱雲なし

METAR: ZMUB 181900Z 00000MPS CAVOK 00/M02 Q1012 NOSIG RMK QFE652.4 85

時間: 04:39 (19:39 UTC)

予報

当レポートは2時間59分前の16:40(UTC)に作成
予報は18日の 18時(UTC)から 19日の 24時(UTC)まで有効
変向風 4kt
視程10km以上
高度3000ftの雲はほとんどない, 積乱雲.
高度3300ftの雲は散在している
19日の 04時(UTC)から 19日の 07時(UTC)まで徐々に
北/北西の風 12kt
高度2700ftの雲はほとんどない, 積乱雲.
高度3000ftの千切れ雲あり
19日の 05時(UTC)から 19日の 12時(UTC)まで一時的に
変向風 16kt
高度2700ftの雲は散在している, 積乱雲.
高度3000ftの千切れ雲あり
にわか雨
19日の 10時(UTC)から 19日の 12時(UTC)まで徐々に
北/北西の風 16kt
視程: 8000m
高度2300ftの雲はほとんどない
高度2700ftの雲はほとんどない, 積乱雲.
高度3000ftの千切れ雲あり
高度8000ftの千切れ雲あり
雨, 雪, 高い地吹雪

TAF: ZMUB 181640Z 1818/1924 VRB02MPS 9999 FEW030CB SCT033 TNM01/1821Z TX13/1907Z BECMG 1904/1907 34006MPS FEW027CB BKN030 TEMPO 1905/1912 VRB08MPS SHRA SCT027CB BKN030 BECMG 1910/1912 34008MPS 8000 RASN BLSN FEW023 FEW027CB BKN030 BKN080

4,000以上の空港の気象観測と天気予報(METAR報とTAF報)

利用可能な観測所は地図上に黄色い丸と赤い丸で示す。

丸の上にカーソルを重ねると観測所名を参照できる。

次にクリックすると気象観測と天気予報を参照できる。

マップの切り替え:黒色「×」印の緑ボタンをクリックして拡大、「-」印の緑ボタンをクリックして縮小、緑色の三角印をクリックして隣りの地図に切り替え


METAR-TAF: